Time;durP1;ratioP1;P1;durP2;ratioP2;P2;SDS_P1;SDS_P2;PMS_P1;PMS_P2;Temp;Humidity;BMP_temperature;BMP_pressure;BME280_temperature;BME280_humidity;BME280_pressure;Samples;Min_cycle;Max_cycle;Signal;HPM_P1;HPM_P2
2022/01/27 00:05:17;;;;;;;0.10;0.10;;;0.20;99.90;;;;;;4992353;28;20733;-61
2022/01/27 00:10:47;;;;;;;1.60;1.50;;;0.20;99.90;;;;;;4993515;28;20189;-61
2022/01/27 00:13:16;;;;;;;0.30;0.30;;;0.20;99.90;;;;;;4992915;28;20248;-61
2022/01/27 00:15:44;;;;;;;1.13;0.80;;;0.20;99.90;;;;;;4975522;28;20288;-61
2022/01/27 00:18:17;;;;;;;2.07;1.07;;;0.20;99.90;;;;;;4993030;28;20279;-61
2022/01/27 00:20:47;;;;;;;1.07;1.07;;;0.20;99.90;;;;;;4993132;28;20199;-61
2022/01/27 00:23:14;;;;;;;0.50;0.50;;;0.20;99.90;;;;;;4992876;28;20705;-61
2022/01/27 00:25:40;;;;;;;0.20;0.20;;;0.20;99.90;;;;;;4992904;28;20222;-61
2022/01/27 00:28:05;;;;;;;0.87;0.53;;;0.20;99.90;;;;;;4992523;28;20943;-61
2022/01/27 00:30:33;;;;;;;0.37;0.37;;;0.20;99.90;;;;;;4992697;28;20607;-60
2022/01/27 00:32:58;;;;;;;0.70;0.70;;;0.30;99.90;;;;;;4993042;28;20260;-61
2022/01/27 00:35:24;;;;;;;1.00;0.97;;;0.30;99.90;;;;;;4992719;28;20327;-61
2022/01/27 00:37:50;;;;;;;0.43;0.40;;;0.30;99.90;;;;;;4975466;28;20190;-61
2022/01/27 00:40:15;;;;;;;2.93;1.27;;;0.20;99.90;;;;;;4992572;28;20183;-61
2022/01/27 00:42:42;;;;;;;0.80;0.80;;;0.30;99.90;;;;;;4992815;28;20554;-65
2022/01/27 00:45:09;;;;;;;0.20;0.20;;;0.30;99.90;;;;;;4992419;28;20263;-61
2022/01/27 00:47:35;;;;;;;0.47;0.30;;;0.30;99.90;;;;;;4992881;28;20186;-61
2022/01/27 00:50:02;;;;;;;0.73;0.73;;;0.30;99.90;;;;;;4992788;28;20183;-61
2022/01/27 00:52:37;;;;;;;0.13;0.13;;;0.30;99.90;;;;;;4992484;28;20281;-62
2022/01/27 00:55:05;;;;;;;0.10;0.10;;;0.30;99.90;;;;;;5002608;28;20323;-70
2022/01/27 00:57:56;;;;;;;0.30;0.30;;;0.30;99.90;;;;;;5012046;28;20875;-61
2022/01/27 01:00:29;;;;;;;2.70;2.03;;;0.30;99.90;;;;;;5011709;28;20203;-64
2022/01/27 01:03:09;;;;;;;1.03;1.03;;;0.30;99.90;;;;;;5012158;28;20178;-61
2022/01/27 01:08:36;;;;;;;0.10;0.10;;;0.30;99.90;;;;;;5011991;28;20180;-60
2022/01/27 01:16:30;;;;;;;4.43;1.40;;;0.30;99.90;;;;;;5013395;28;20646;-61
2022/01/27 01:19:16;;;;;;;7.17;1.03;;;0.30;99.90;;;;;;5016118;28;20279;-60
2022/01/27 01:32:47;;;;;;;0.60;0.60;;;0.20;99.90;;;;;;5015632;28;20182;-61
2022/01/27 01:35:13;;;;;;;0.10;0.10;;;0.20;99.90;;;;;;5015925;28;20242;-61
2022/01/27 01:37:41;;;;;;;0.20;0.20;;;0.20;99.90;;;;;;5015879;28;20522;-62
2022/01/27 01:40:15;;;;;;;0.13;0.13;;;0.20;99.90;;;;;;5015417;28;20607;-63
2022/01/27 01:42:42;;;;;;;0.10;0.10;;;0.20;99.90;;;;;;5015545;28;20181;-61
2022/01/27 01:45:14;;;;;;;1.37;1.13;;;0.20;99.90;;;;;;5015202;28;20566;-61
2022/01/27 01:47:40;;;;;;;0.93;0.20;;;0.20;99.90;;;;;;4997754;28;20189;-60
2022/01/27 01:50:08;;;;;;;0.40;0.40;;;0.20;99.90;;;;;;5015574;28;20580;-68
2022/01/27 01:52:34;;;;;;;0.33;0.33;;;0.20;99.90;;;;;;5015388;28;20537;-60
2022/01/27 01:55:01;;;;;;;0.17;0.17;;;0.20;99.90;;;;;;5006065;28;20279;-60
2022/01/27 01:57:27;;;;;;;0.60;0.57;;;0.10;99.90;;;;;;4995432;28;20673;-60
2022/01/27 01:59:53;;;;;;;0.93;0.93;;;0.20;99.90;;;;;;4995732;28;20185;-60
2022/01/27 02:02:19;;;;;;;0.37;0.37;;;0.20;99.90;;;;;;4977776;28;20192;-60
2022/01/27 02:04:45;;;;;;;0.33;0.33;;;0.20;99.90;;;;;;4996006;28;20184;-60
2022/01/27 02:07:32;;;;;;;2.90;1.33;;;0.10;99.90;;;;;;4995431;28;20212;-60
2022/01/27 02:18:06;;;;;;;0.50;0.50;;;-0.10;99.90;;;;;;4975837;28;20235;-60
2022/01/27 02:20:34;;;;;;;2.57;1.70;;;-0.10;99.90;;;;;;4975672;28;20209;-60
2022/01/27 02:23:02;;;;;;;0.90;0.90;;;-0.10;99.90;;;;;;4958638;28;20189;-60
2022/01/27 02:25:28;;;;;;;0.47;0.47;;;-0.10;99.90;;;;;;4975418;28;20324;-59
2022/01/27 02:27:55;;;;;;;0.10;0.10;;;-0.10;99.90;;;;;;4974927;28;20273;-59
2022/01/27 02:30:22;;;;;;;0.80;0.80;;;-0.10;99.90;;;;;;4975745;28;20178;-60
2022/01/27 02:32:52;;;;;;;0.83;0.77;;;-0.10;99.90;;;;;;4974182;28;20541;-59
2022/01/27 02:35:19;;;;;;;0.33;0.33;;;-0.10;99.90;;;;;;4975161;28;20255;-60
2022/01/27 02:37:45;;;;;;;0.30;0.30;;;0.00;99.90;;;;;;4975365;28;20282;-59
2022/01/27 02:40:48;;;;;;;0.43;0.43;;;0.00;99.90;;;;;;4958105;28;20289;-58
2022/01/27 02:43:14;;;;;;;0.10;0.10;;;0.10;99.90;;;;;;4969656;28;20229;-57
2022/01/27 02:45:54;;;;;;;1.27;1.07;;;0.10;99.90;;;;;;4975423;28;20238;-57
2022/01/27 02:48:19;;;;;;;0.70;0.70;;;0.10;99.90;;;;;;4975227;28;20174;-57
2022/01/27 02:50:45;;;;;;;0.57;0.57;;;0.10;99.90;;;;;;4975388;28;20191;-58
2022/01/27 02:53:11;;;;;;;0.20;0.20;;;0.10;99.90;;;;;;4974939;28;20245;-58
2022/01/27 02:55:37;;;;;;;2.03;1.13;;;0.10;99.90;;;;;;4975226;28;20268;-59
2022/01/27 02:58:04;;;;;;;0.00;0.00;;;0.10;99.90;;;;;;4974816;28;20191;-60
2022/01/27 03:00:33;;;;;;;4.03;0.83;;;0.10;99.90;;;;;;4974574;28;20545;-59
2022/01/27 03:02:59;;;;;;;0.67;0.57;;;0.10;99.90;;;;;;4975317;28;20187;-60
2022/01/27 03:05:25;;;;;;;0.20;0.20;;;0.10;99.90;;;;;;4974854;28;20204;-59
2022/01/27 03:07:51;;;;;;;1.73;0.90;;;0.10;99.90;;;;;;4975011;28;20640;-59
2022/01/27 03:10:18;;;;;;;0.83;0.83;;;0.10;99.90;;;;;;4974800;28;20193;-58
2022/01/27 03:12:44;;;;;;;0.20;0.20;;;0.10;99.90;;;;;;4974742;28;20665;-60
2022/01/27 03:15:11;;;;;;;1.17;1.17;;;0.10;99.90;;;;;;4977021;28;20193;-58
2022/01/27 03:17:40;;;;;;;0.20;0.20;;;0.10;99.90;;;;;;4994236;28;20181;-59
2022/01/27 03:20:08;;;;;;;0.10;0.10;;;0.10;99.90;;;;;;4989417;28;20261;-58
2022/01/27 03:22:34;;;;;;;0.30;0.30;;;0.10;99.90;;;;;;4993459;28;20185;-58
2022/01/27 03:25:00;;;;;;;0.10;0.10;;;0.10;99.90;;;;;;4994114;28;20216;-59
2022/01/27 03:27:27;;;;;;;1.33;0.60;;;0.10;99.90;;;;;;4993649;28;20214;-58
2022/01/27 03:29:53;;;;;;;4.70;4.07;;;0.10;99.90;;;;;;4994105;28;20570;-58
2022/01/27 03:32:19;;;;;;;8.43;1.77;;;0.10;99.90;;;;;;4993616;28;20264;-58
2022/01/27 03:34:45;;;;;;;2.20;0.83;;;0.10;99.90;;;;;;4993926;28;20246;-58
2022/01/27 03:37:10;;;;;;;0.30;0.30;;;0.10;99.90;;;;;;4993850;28;20181;-58
2022/01/27 03:39:38;;;;;;;0.50;0.50;;;0.10;99.90;;;;;;4993565;28;20556;-57
2022/01/27 03:42:06;;;;;;;1.10;0.57;;;0.10;99.90;;;;;;4993533;28;20248;-57
2022/01/27 03:44:32;;;;;;;1.43;1.33;;;0.10;99.90;;;;;;4993372;28;20994;-57
2022/01/27 03:46:57;;;;;;;0.00;0.00;;;0.10;99.90;;;;;;4993768;28;20219;-56
2022/01/27 03:49:24;;;;;;;0.00;0.00;;;0.20;99.90;;;;;;4993108;28;20551;-61
2022/01/27 03:51:50;;;;;;;3.30;1.23;;;0.30;99.90;;;;;;4993462;28;20589;-58
2022/01/27 03:54:16;;;;;;;0.40;0.40;;;0.40;99.90;;;;;;4996466;28;20694;-57
2022/01/27 03:56:42;;;;;;;0.40;0.40;;;0.30;99.90;;;;;;5013374;28;20222;-57
2022/01/27 03:59:08;;;;;;;0.37;0.37;;;0.30;99.90;;;;;;5012982;28;20180;-57
2022/01/27 04:01:35;;;;;;;0.73;0.67;;;0.30;99.90;;;;;;5012695;28;20195;-60
2022/01/27 04:04:01;;;;;;;0.20;0.20;;;0.20;99.90;;;;;;5012827;28;20181;-55
2022/01/27 04:06:39;;;;;;;3.03;2.03;;;0.20;99.90;;;;;;5012671;28;20235;-56
2022/01/27 04:09:10;;;;;;;0.10;0.10;;;0.20;99.90;;;;;;5012638;28;20660;-60
2022/01/27 04:11:38;;;;;;;2.27;0.93;;;0.20;99.90;;;;;;5012477;28;20185;-58
2022/01/27 04:14:04;;;;;;;0.10;0.10;;;0.10;99.90;;;;;;5002322;28;20188;-57
2022/01/27 04:16:30;;;;;;;0.87;0.87;;;0.10;99.90;;;;;;4992774;28;20202;-60
2022/01/27 04:18:55;;;;;;;0.53;0.40;;;0.10;99.90;;;;;;4993122;28;20262;-61
2022/01/27 04:21:21;;;;;;;4.00;1.43;;;0.10;99.90;;;;;;4975230;28;20309;-60
2022/01/27 04:23:49;;;;;;;0.20;0.20;;;0.10;99.90;;;;;;4992740;28;20261;-64
2022/01/27 04:26:18;;;;;;;0.43;0.43;;;0.10;99.90;;;;;;4975222;28;20220;-78
2022/01/27 04:28:45;;;;;;;0.37;0.37;;;0.10;99.90;;;;;;4992628;28;20185;-58
2022/01/27 04:31:11;;;;;;;0.97;0.97;;;0.10;99.90;;;;;;4993088;28;20275;-58
2022/01/27 04:33:39;;;;;;;0.77;0.77;;;0.10;99.90;;;;;;4992339;28;20189;-59
2022/01/27 04:36:13;;;;;;;2.50;1.97;;;0.10;99.90;;;;;;4992135;28;20540;-59
2022/01/27 04:38:52;;;;;;;0.63;0.63;;;0.10;99.90;;;;;;4992429;28;20184;-60
2022/01/27 04:41:35;;;;;;;1.23;0.93;;;0.10;99.90;;;;;;4992259;28;20195;-60
2022/01/27 04:44:17;;;;;;;1.33;1.00;;;0.10;99.90;;;;;;4979002;28;20685;-60
2022/01/27 04:47:00;;;;;;;5.30;2.03;;;0.10;99.90;;;;;;4977524;28;20224;-59
2022/01/27 04:49:26;;;;;;;0.87;0.83;;;0.10;99.90;;;;;;4992169;28;20196;-60
2022/01/27 04:51:52;;;;;;;0.50;0.50;;;0.10;99.90;;;;;;4991735;28;20186;-59
2022/01/27 04:54:26;;;;;;;1.53;1.43;;;0.10;99.90;;;;;;4991837;28;20241;-60
2022/01/27 04:56:53;;;;;;;2.47;1.63;;;0.00;99.90;;;;;;4992519;28;20280;-60
2022/01/27 04:59:24;;;;;;;0.67;0.67;;;0.00;99.90;;;;;;4991891;28;20199;-60
2022/01/27 05:02:04;;;;;;;6.60;3.40;;;0.10;99.90;;;;;;4992171;28;20666;-59
2022/01/27 05:04:35;;;;;;;9.40;3.07;;;0.10;99.90;;;;;;4991786;28;20192;-59
2022/01/27 05:07:00;;;;;;;16.17;3.87;;;0.10;99.90;;;;;;4992078;28;20299;-58
2022/01/27 05:09:26;;;;;;;1.30;0.77;;;0.10;99.90;;;;;;4991730;28;20274;-64
2022/01/27 05:12:06;;;;;;;2.37;2.17;;;0.10;99.90;;;;;;4992231;28;20193;-58
2022/01/27 05:14:32;;;;;;;0.30;0.30;;;0.20;99.90;;;;;;4991422;28;20197;-61
2022/01/27 05:16:58;;;;;;;2.63;0.83;;;0.20;99.90;;;;;;4991912;28;20543;-59
2022/01/27 05:19:23;;;;;;;3.27;3.00;;;0.20;99.90;;;;;;4991464;28;20186;-59
2022/01/27 05:21:49;;;;;;;2.63;2.43;;;0.20;99.90;;;;;;4991814;28;20186;-59
2022/01/27 05:24:16;;;;;;;0.90;0.90;;;0.20;99.90;;;;;;4992101;28;20249;-60
2022/01/27 05:26:42;;;;;;;2.20;2.00;;;0.30;99.90;;;;;;4991525;28;20662;-64
2022/01/27 05:29:09;;;;;;;2.87;2.53;;;0.30;99.90;;;;;;4991705;28;20184;-60
2022/01/27 05:31:36;;;;;;;3.20;2.80;;;0.30;99.90;;;;;;4991595;28;20189;-60
2022/01/27 05:34:02;;;;;;;0.70;0.70;;;0.40;99.90;;;;;;4991336;28;20185;-60
2022/01/27 05:36:28;;;;;;;0.57;0.57;;;0.40;99.90;;;;;;4991170;28;20196;-60
2022/01/27 05:38:53;;;;;;;0.60;0.60;;;0.50;99.90;;;;;;4991955;28;20185;-59
2022/01/27 05:41:19;;;;;;;5.10;1.50;;;0.40;99.90;;;;;;4973485;28;20187;-72
2022/01/27 05:43:45;;;;;;;0.27;0.27;;;0.50;99.90;;;;;;4990981;28;20189;-59
2022/01/27 05:46:11;;;;;;;0.30;0.30;;;0.50;99.90;;;;;;4991019;28;20206;-60
2022/01/27 05:48:37;;;;;;;0.73;0.73;;;0.50;99.90;;;;;;4991113;28;20217;-61
2022/01/27 05:51:04;;;;;;;1.07;1.00;;;0.50;99.90;;;;;;4990788;28;20264;-60
2022/01/27 05:53:30;;;;;;;1.13;1.03;;;0.60;99.90;;;;;;4990966;28;20532;-60
2022/01/27 05:55:57;;;;;;;1.90;1.23;;;0.60;99.90;;;;;;4986495;28;20699;-59
2022/01/27 05:58:23;;;;;;;0.83;0.73;;;0.60;99.90;;;;;;4990075;28;20266;-62
2022/01/27 06:00:49;;;;;;;1.43;0.70;;;0.70;99.90;;;;;;4991256;28;20524;-61
2022/01/27 06:03:15;;;;;;;1.80;0.73;;;0.70;99.90;;;;;;4992742;28;20188;-62
2022/01/27 06:05:40;;;;;;;1.13;1.13;;;0.70;99.90;;;;;;4993885;28;20225;-61
2022/01/27 06:08:06;;;;;;;0.40;0.40;;;0.70;99.90;;;;;;4994204;28;20275;-61
2022/01/27 06:10:32;;;;;;;0.43;0.43;;;0.80;99.90;;;;;;4994012;28;20634;-62
2022/01/27 06:12:59;;;;;;;0.30;0.30;;;0.80;99.90;;;;;;4993030;28;20197;-60
2022/01/27 06:15:26;;;;;;;0.50;0.50;;;0.80;99.90;;;;;;4992998;28;20704;-60
2022/01/27 06:17:53;;;;;;;0.10;0.10;;;0.80;99.90;;;;;;4992816;28;20253;-68
2022/01/27 06:20:19;;;;;;;0.20;0.20;;;0.80;99.90;;;;;;4986587;28;20200;-60
2022/01/27 06:22:46;;;;;;;0.43;0.43;;;0.80;99.90;;;;;;4992071;28;20189;-62
2022/01/27 06:25:14;;;;;;;0.27;0.27;;;0.80;99.90;;;;;;5010127;28;20200;-60
2022/01/27 06:27:40;;;;;;;6.73;2.27;;;0.90;99.90;;;;;;4991311;28;20207;-60
2022/01/27 06:30:08;;;;;;;1.03;1.03;;;0.90;99.90;;;;;;5003849;28;20193;-61
2022/01/27 06:32:34;;;;;;;1.60;0.50;;;0.90;99.90;;;;;;4990975;28;20194;-61
2022/01/27 06:35:03;;;;;;;0.70;0.70;;;0.90;99.90;;;;;;4992280;28;20355;-63
2022/01/27 06:37:31;;;;;;;4.77;1.27;;;1.00;99.90;;;;;;4973330;28;20192;-60
2022/01/27 06:39:57;;;;;;;11.73;1.47;;;1.00;99.90;;;;;;4990179;28;20209;-62
2022/01/27 06:42:22;;;;;;;0.73;0.70;;;1.10;99.90;;;;;;4992973;28;20578;-61
2022/01/27 06:44:48;;;;;;;0.50;0.50;;;1.10;99.90;;;;;;4993999;28;20234;-61
2022/01/27 06:47:14;;;;;;;0.87;0.87;;;1.10;99.90;;;;;;4991491;28;20741;-61
2022/01/27 06:49:39;;;;;;;0.70;0.70;;;1.10;99.90;;;;;;4996758;28;20215;-61
2022/01/27 06:52:06;;;;;;;0.77;0.73;;;1.10;99.90;;;;;;4991613;28;20273;-60
2022/01/27 06:54:32;;;;;;;0.97;0.83;;;1.20;99.90;;;;;;5004238;28;20317;-61
2022/01/27 06:56:58;;;;;;;0.77;0.77;;;1.20;99.90;;;;;;5005892;28;20278;-60
2022/01/27 06:59:23;;;;;;;4.83;2.83;;;1.20;99.90;;;;;;4993735;28;20192;-62
2022/01/27 07:01:49;;;;;;;2.60;1.07;;;1.20;99.90;;;;;;4998554;28;20558;-62
2022/01/27 07:04:15;;;;;;;5.93;1.07;;;1.20;99.90;;;;;;5004536;28;20202;-60
2022/01/27 07:06:40;;;;;;;0.30;0.30;;;1.20;99.90;;;;;;5007295;28;20256;-63
2022/01/27 07:09:06;;;;;;;1.10;1.07;;;1.20;99.90;;;;;;5012151;28;20557;-62
2022/01/27 07:11:32;;;;;;;2.17;1.13;;;1.30;99.90;;;;;;4990680;28;20251;-62
2022/01/27 07:13:58;;;;;;;1.70;0.67;;;1.30;99.90;;;;;;5002494;28;20559;-62
2022/01/27 07:16:24;;;;;;;0.33;0.33;;;1.30;99.90;;;;;;5008927;28;20289;-62
2022/01/27 07:18:52;;;;;;;1.87;1.00;;;1.30;99.90;;;;;;4993203;28;20644;-61
2022/01/27 07:21:19;;;;;;;0.60;0.60;;;1.30;99.90;;;;;;5003631;28;20194;-62
2022/01/27 07:23:45;;;;;;;2.37;1.50;;;1.30;99.90;;;;;;4985303;28;20199;-61
2022/01/27 07:26:11;;;;;;;3.53;3.20;;;1.40;99.90;;;;;;5004338;28;20221;-63
2022/01/27 07:28:37;;;;;;;7.83;1.67;;;1.40;99.90;;;;;;4991723;28;20229;-64
2022/01/27 07:31:03;;;;;;;0.80;0.80;;;1.50;99.90;;;;;;4997095;28;20578;-62
2022/01/27 07:33:29;;;;;;;1.97;1.87;;;1.60;99.90;;;;;;4995325;28;20201;-67
2022/01/27 07:35:54;;;;;;;9.53;4.53;;;1.70;99.90;;;;;;5012563;28;20193;-61
2022/01/27 07:38:23;;;;;;;1.33;1.10;;;1.80;99.90;;;;;;5006702;28;20275;-61
2022/01/27 07:40:49;;;;;;;7.00;3.20;;;1.80;99.90;;;;;;5011797;28;20193;-61
2022/01/27 07:43:15;;;;;;;1.33;1.30;;;1.80;99.90;;;;;;5012219;28;20187;-61
2022/01/27 07:45:41;;;;;;;0.90;0.90;;;1.90;99.90;;;;;;5011744;28;20206;-63
2022/01/27 07:48:07;;;;;;;1.03;1.00;;;1.90;99.90;;;;;;5012704;28;20628;-62
2022/01/27 07:50:33;;;;;;;1.67;1.57;;;2.00;99.90;;;;;;5012283;28;20678;-63
2022/01/27 07:52:59;;;;;;;2.07;1.93;;;2.10;99.90;;;;;;5012247;28;20286;-60
2022/01/27 07:55:25;;;;;;;0.87;0.87;;;2.20;99.90;;;;;;4993691;28;20675;-71
2022/01/27 07:57:51;;;;;;;1.03;1.00;;;2.20;99.90;;;;;;5012290;28;20175;-62
2022/01/27 08:00:17;;;;;;;2.37;1.40;;;2.20;99.90;;;;;;5011893;28;20214;-60
2022/01/27 08:02:45;;;;;;;1.53;1.43;;;2.20;99.90;;;;;;5012083;28;20191;-62
2022/01/27 08:05:11;;;;;;;1.80;0.80;;;2.30;99.90;;;;;;4994658;28;20274;-62
2022/01/27 08:07:37;;;;;;;0.87;0.80;;;2.30;99.90;;;;;;5011758;28;20191;-62
2022/01/27 08:10:03;;;;;;;6.27;3.80;;;2.20;99.90;;;;;;5011685;28;20619;-64
2022/01/27 08:12:29;;;;;;;33.47;3.33;;;2.10;99.90;;;;;;4993713;28;20186;-61
2022/01/27 08:14:55;;;;;;;3.10;1.13;;;2.30;99.90;;;;;;5011716;28;20195;-62
2022/01/27 08:17:20;;;;;;;1.20;0.57;;;2.20;99.90;;;;;;5012260;28;20187;-61
2022/01/27 08:19:46;;;;;;;1.57;1.47;;;2.30;99.90;;;;;;5012250;28;20190;-63
2022/01/27 08:22:12;;;;;;;0.30;0.30;;;2.50;99.90;;;;;;4994458;28;20199;-62
2022/01/27 08:24:38;;;;;;;16.03;2.10;;;2.60;99.90;;;;;;5011092;28;20206;-65
2022/01/27 08:27:06;;;;;;;14.33;3.13;;;2.70;99.90;;;;;;5010238;28;20448;-63
2022/01/27 08:29:43;;;;;;;0.67;0.67;;;2.80;99.90;;;;;;5011336;28;20180;-62
2022/01/27 08:32:15;;;;;;;0.33;0.33;;;2.70;99.90;;;;;;5011979;28;20358;-63
2022/01/27 08:34:42;;;;;;;21.43;1.87;;;2.80;99.90;;;;;;5011494;28;20191;-63
2022/01/27 08:37:13;;;;;;;4.43;2.67;;;3.00;99.90;;;;;;5011626;28;20187;-65
2022/01/27 08:39:40;;;;;;;0.30;0.30;;;3.30;99.90;;;;;;5011413;28;20203;-64
2022/01/27 08:42:08;;;;;;;3.90;1.43;;;3.30;99.90;;;;;;5011100;28;20175;-62
2022/01/27 08:44:36;;;;;;;2.57;0.93;;;3.40;99.90;;;;;;5009570;28;20190;-62
2022/01/27 08:47:02;;;;;;;5.80;1.13;;;3.30;99.90;;;;;;5009674;28;20330;-62
2022/01/27 08:49:28;;;;;;;1.27;0.30;;;3.50;99.90;;;;;;4992574;28;20180;-73
2022/01/27 08:51:55;;;;;;;1.23;1.23;;;3.70;99.90;;;;;;5009530;28;20670;-63
2022/01/27 08:54:21;;;;;;;0.40;0.40;;;3.90;99.90;;;;;;5009358;28;20240;-64
2022/01/27 08:56:47;;;;;;;1.00;0.93;;;4.20;99.90;;;;;;4991751;28;20240;-62
2022/01/27 08:59:16;;;;;;;1.93;1.57;;;4.00;99.90;;;;;;5011772;28;20641;-62
2022/01/27 09:01:43;;;;;;;2.57;1.77;;;4.00;99.90;;;;;;5010798;28;20216;-62
2022/01/27 09:04:09;;;;;;;1.47;1.37;;;4.00;99.90;;;;;;5011103;28;20211;-63
2022/01/27 09:06:36;;;;;;;0.93;0.90;;;4.30;99.90;;;;;;5011157;28;20236;-66
2022/01/27 09:09:03;;;;;;;1.13;1.13;;;4.30;99.90;;;;;;5011501;28;20222;-63
2022/01/27 09:11:31;;;;;;;1.63;1.53;;;4.30;99.90;;;;;;5011616;28;20172;-70
2022/01/27 09:13:57;;;;;;;3.80;2.30;;;4.30;99.90;;;;;;5011543;28;20266;-63
2022/01/27 09:16:26;;;;;;;2.33;2.03;;;4.50;99.90;;;;;;5011554;28;20731;-63
2022/01/27 09:18:53;;;;;;;1.70;1.43;;;4.30;99.90;;;;;;5011090;28;20237;-62
2022/01/27 09:21:24;;;;;;;0.77;0.77;;;4.30;99.90;;;;;;5011148;28;20185;-65
2022/01/27 09:23:50;;;;;;;2.63;1.10;;;4.40;99.90;;;;;;5010878;28;20996;-61
2022/01/27 09:29:02;;;;;;;1.80;1.60;;;4.40;99.90;;;;;;4996415;28;20582;-61
2022/01/27 09:31:27;;;;;;;3.87;1.60;;;4.40;99.90;;;;;;5010574;28;20198;-61
2022/01/27 09:33:54;;;;;;;4.33;2.47;;;4.20;99.90;;;;;;5010445;28;20190;-63
2022/01/27 09:36:19;;;;;;;2.83;2.10;;;4.30;99.90;;;;;;5011023;28;20697;-63
2022/01/27 09:38:45;;;;;;;2.67;2.47;;;4.20;99.90;;;;;;5014810;28;20259;-62
2022/01/27 09:41:18;;;;;;;3.40;1.90;;;4.40;99.90;;;;;;4996618;28;20220;-62
2022/01/27 09:43:43;;;;;;;3.50;2.07;;;4.40;99.90;;;;;;5014312;28;20191;-63
2022/01/27 09:46:13;;;;;;;1.00;1.00;;;4.50;99.90;;;;;;5014877;28;20681;-62
2022/01/27 09:48:43;;;;;;;1.93;1.83;;;4.70;99.90;;;;;;5014374;28;20287;-63
2022/01/27 09:53:55;;;;;;;2.17;1.97;;;4.70;99.90;;;;;;5014129;28;20490;-62
2022/01/27 09:56:21;;;;;;;3.07;2.53;;;4.80;99.90;;;;;;4991726;28;20200;-63
2022/01/27 09:58:47;;;;;;;1.80;1.50;;;5.00;99.90;;;;;;4994090;28;20211;-62
2022/01/27 10:01:13;;;;;;;2.93;2.40;;;5.10;99.90;;;;;;4994405;28;20300;-62
2022/01/27 10:03:52;;;;;;;2.07;1.90;;;5.30;99.90;;;;;;4994586;28;20270;-62
2022/01/27 10:06:19;;;;;;;1.63;1.53;;;5.10;99.90;;;;;;4976983;28;20216;-61
2022/01/27 10:08:44;;;;;;;2.57;2.37;;;4.80;99.90;;;;;;4993993;28;20612;-62
2022/01/27 10:11:18;;;;;;;4.50;1.37;;;4.90;99.90;;;;;;4994421;28;20275;-61
2022/01/27 10:13:47;;;;;;;16.37;4.87;;;5.20;99.90;;;;;;4986506;28;20181;-62
2022/01/27 10:16:29;;;;;;;8.63;3.63;;;5.50;99.90;;;;;;4990066;28;20509;-62
2022/01/27 10:19:06;;;;;;;1.40;1.30;;;5.60;99.90;;;;;;4994272;28;20184;-62
2022/01/27 10:21:33;;;;;;;2.40;2.20;;;5.80;99.90;;;;;;4994200;28;20228;-60
2022/01/27 10:24:26;;;;;;;5.97;3.83;;;5.70;99.90;;;;;;4994242;28;20242;-60
2022/01/27 10:28:10;;;;;;;1.40;1.27;;;5.50;99.90;;;;;;4993980;28;20812;-62
2022/01/27 10:30:36;;;;;;;2.57;2.37;;;5.40;99.90;;;;;;4983328;28;20193;-60
2022/01/27 10:32:57;;;;;;;2.27;2.10;;;5.40;99.90;;;;;;4993408;28;20275;-61
2022/01/27 10:35:25;;;;;;;1.70;1.60;;;5.60;99.90;;;;;;4994402;28;20419;-60
2022/01/27 10:38:04;;;;;;;4.10;2.37;;;5.70;99.90;;;;;;4993853;28;20644;-62
2022/01/27 10:40:34;;;;;;;4.43;2.40;;;5.80;99.90;;;;;;4993722;28;20604;-63
2022/01/27 10:43:09;;;;;;;3.73;3.40;;;5.80;99.90;;;;;;4993467;28;20192;-61
2022/01/27 10:45:38;;;;;;;40.30;22.27;;;5.80;99.90;;;;;;4993562;28;20302;-67
2022/01/27 10:48:16;;;;;;;43.97;22.83;;;5.80;99.90;;;;;;4992995;28;20234;-63
2022/01/27 10:50:49;;;;;;;40.27;21.10;;;5.90;99.90;;;;;;4993511;28;20182;-62
2022/01/27 10:53:16;;;;;;;35.27;19.23;;;6.00;99.90;;;;;;4993790;28;20184;-59
2022/01/27 10:55:42;;;;;;;32.43;16.73;;;6.00;99.90;;;;;;4987242;28;20379;-61
2022/01/27 10:58:26;;;;;;;36.03;18.87;;;5.80;99.90;;;;;;4993102;28;20188;-61
2022/01/27 11:00:59;;;;;;;33.07;17.13;;;6.10;99.90;;;;;;4992788;28;20203;-60
2022/01/27 11:03:27;;;;;;;36.10;17.13;;;6.30;99.90;;;;;;4993039;28;20220;-62
2022/01/27 11:05:54;;;;;;;29.63;16.77;;;6.20;99.90;;;;;;4974944;28;20653;-61
2022/01/27 11:08:23;;;;;;;29.43;16.23;;;5.90;99.90;;;;;;4993191;28;20188;-61
2022/01/27 11:10:50;;;;;;;26.33;14.07;;;5.90;99.90;;;;;;4993352;28;20234;-62
2022/01/27 11:13:19;;;;;;;27.13;14.83;;;6.20;99.90;;;;;;4992485;28;20507;-60
2022/01/27 11:15:45;;;;;;;28.03;14.43;;;6.20;99.90;;;;;;4992571;28;20370;-62
2022/01/27 11:18:15;;;;;;;24.73;15.00;;;6.40;99.90;;;;;;4992951;28;20204;-60
2022/01/27 11:20:56;;;;;;;27.97;16.47;;;6.60;99.90;;;;;;4992466;28;20659;-63
2022/01/27 11:26:07;;;;;;;30.20;14.83;;;6.90;99.90;;;;;;4993136;28;20746;-61
2022/01/27 11:28:33;;;;;;;25.33;14.97;;;6.70;99.60;;;;;;4974844;28;20370;-60
2022/01/27 11:31:14;;;;;;;23.83;12.93;;;6.40;99.90;;;;;;4992169;28;20196;-60
2022/01/27 11:33:44;;;;;;;20.27;12.50;;;6.40;99.90;;;;;;4992392;28;20218;-61
2022/01/27 11:36:13;;;;;;;18.93;11.40;;;6.30;99.80;;;;;;4992450;28;20186;-60
2022/01/27 11:38:42;;;;;;;23.43;13.03;;;6.40;99.80;;;;;;4992368;28;20185;-64
2022/01/27 11:41:34;;;;;;;25.47;13.70;;;6.70;99.90;;;;;;4992750;28;20188;-60
2022/01/27 11:44:28;;;;;;;26.23;13.60;;;6.60;99.90;;;;;;4992045;28;20185;-62
2022/01/27 11:47:13;;;;;;;16.97;10.00;;;6.70;99.70;;;;;;4992555;28;20221;-59
2022/01/27 11:52:31;;;;;;;23.10;11.17;;;6.70;98.40;;;;;;4992551;28;20594;-61
2022/01/27 11:55:17;;;;;;;21.37;12.23;;;6.80;99.50;;;;;;5000526;28;20283;-61
2022/01/27 11:57:45;;;;;;;22.43;12.17;;;6.30;99.10;;;;;;5011032;28;20214;-61
2022/01/27 12:00:18;;;;;;;20.67;11.70;;;5.90;99.30;;;;;;5011667;28;20182;-61
2022/01/27 12:03:01;;;;;;;19.53;11.27;;;5.70;99.90;;;;;;5011416;28;20544;-61
2022/01/27 12:05:30;;;;;;;23.67;13.40;;;5.70;99.90;;;;;;5011626;28;20207;-62
2022/01/27 12:08:14;;;;;;;22.30;12.60;;;5.70;99.90;;;;;;5011412;28;20180;-60
2022/01/27 12:11:02;;;;;;;21.67;12.23;;;5.70;99.90;;;;;;5011626;28;20214;-66
2022/01/27 12:13:41;;;;;;;24.97;13.13;;;5.50;99.90;;;;;;5006061;28;20188;-61
2022/01/27 12:16:38;;;;;;;18.63;9.97;;;5.40;99.90;;;;;;4991630;28;20184;-62
2022/01/27 12:19:04;;;;;;;21.97;12.10;;;5.70;99.90;;;;;;4991337;28;20184;-60
2022/01/27 12:21:45;;;;;;;21.27;11.87;;;6.20;99.90;;;;;;4991562;28;20536;-59
2022/01/27 12:24:15;;;;;;;22.60;12.47;;;6.50;99.90;;;;;;4991652;28;20180;-62
2022/01/27 12:26:53;;;;;;;20.10;11.07;;;6.40;99.90;;;;;;4991817;28;20235;-65
2022/01/27 12:29:31;;;;;;;20.57;12.63;;;6.50;99.90;;;;;;4992053;28;20256;-61
2022/01/27 12:32:06;;;;;;;21.13;11.53;;;6.40;99.90;;;;;;4991794;28;20641;-61
2022/01/27 12:34:33;;;;;;;21.43;10.83;;;6.30;99.90;;;;;;4991601;28;20552;-59
2022/01/27 12:37:05;;;;;;;18.70;10.73;;;6.00;99.90;;;;;;4991783;28;20258;-61
2022/01/27 12:39:38;;;;;;;26.17;13.07;;;6.00;99.90;;;;;;4991374;28;20172;-60
2022/01/27 12:42:07;;;;;;;23.70;12.77;;;6.10;99.90;;;;;;4991534;28;20232;-61
2022/01/27 12:44:34;;;;;;;24.93;12.70;;;6.20;99.90;;;;;;4973714;28;20180;-61
2022/01/27 12:47:15;;;;;;;20.20;10.30;;;6.00;99.90;;;;;;4973012;28;20570;-60
2022/01/27 12:49:50;;;;;;;19.07;11.30;;;6.40;99.90;;;;;;4991123;28;20564;-63
2022/01/27 12:52:28;;;;;;;21.60;12.23;;;6.80;99.20;;;;;;4981653;28;20202;-61
2022/01/27 12:54:54;;;;;;;17.90;9.77;;;7.10;99.20;;;;;;4990393;28;20265;-62
2022/01/27 12:57:29;;;;;;;20.03;11.57;;;7.10;97.80;;;;;;4992046;28;20211;-61
2022/01/27 12:59:56;;;;;;;21.77;12.00;;;7.40;98.50;;;;;;5004083;28;20540;-61
2022/01/27 13:02:24;;;;;;;20.83;11.63;;;7.00;97.90;;;;;;4975670;28;20192;-61
2022/01/27 13:04:54;;;;;;;21.93;12.27;;;7.10;98.00;;;;;;4979643;28;20199;-60
2022/01/27 13:07:21;;;;;;;23.27;12.57;;;6.60;98.90;;;;;;4997132;28;20306;-61
2022/01/27 13:10:04;;;;;;;26.40;13.30;;;6.60;99.00;;;;;;4986815;28;20184;-60
2022/01/27 13:12:37;;;;;;;23.03;12.77;;;6.60;99.90;;;;;;4992227;28;20266;-61
2022/01/27 13:15:11;;;;;;;26.00;11.93;;;6.40;99.90;;;;;;5004931;28;20897;-60
2022/01/27 13:20:17;;;;;;;24.43;11.60;;;5.90;99.70;;;;;;4991737;28;20189;-61
2022/01/27 13:22:56;;;;;;;19.00;11.37;;;5.80;99.90;;;;;;4996480;28;20237;-67
2022/01/27 13:25:23;;;;;;;27.20;12.27;;;5.70;99.90;;;;;;5006112;28;20191;-61
2022/01/27 13:28:06;;;;;;;29.40;14.73;;;5.60;99.90;;;;;;5011671;28;20205;-61
2022/01/27 13:30:33;;;;;;;27.63;14.43;;;5.40;99.90;;;;;;5017320;28;20218;-61
2022/01/27 13:32:59;;;;;;;29.23;14.20;;;5.10;99.90;;;;;;5016768;28;20238;-60
2022/01/27 13:35:24;;;;;;;26.83;15.40;;;4.90;99.90;;;;;;5017160;28;20571;-61
2022/01/27 13:37:56;;;;;;;28.53;14.53;;;4.80;99.90;;;;;;5016609;28;20245;-63
2022/01/27 13:43:11;;;;;;;23.03;11.10;;;4.80;99.90;;;;;;5017048;28;20170;-60
2022/01/27 13:45:37;;;;;;;23.03;10.70;;;4.80;99.90;;;;;;4999280;28;20575;-60
2022/01/27 13:48:22;;;;;;;18.17;9.00;;;4.90;99.90;;;;;;5016821;28;20185;-61
2022/01/27 13:51:00;;;;;;;15.73;8.30;;;5.00;99.90;;;;;;5016736;28;20182;-61
2022/01/27 13:53:27;;;;;;;15.37;7.47;;;4.90;99.90;;;;;;5017036;28;20186;-60
2022/01/27 13:55:58;;;;;;;16.03;7.93;;;4.70;99.90;;;;;;5016535;28;20301;-60